createdAt,value
2023-05-17T00:02:53.555Z,23.40
2023-05-17T00:10:22.647Z,68.90
2023-05-17T00:15:22.058Z,99.90
2023-05-17T00:17:54.899Z,52.40
2023-05-17T00:25:21.714Z,99.90
2023-05-17T00:27:50.147Z,99.90
2023-05-17T00:35:21.670Z,99.90
2023-05-17T00:37:52.551Z,99.90
2023-05-17T00:40:22.276Z,99.90
2023-05-17T00:42:51.722Z,99.90
2023-05-17T00:47:51.115Z,99.90
2023-05-17T00:50:23.667Z,99.90
2023-05-17T00:52:53.297Z,99.90
2023-05-17T00:55:23.536Z,99.90
2023-05-17T01:00:21.043Z,99.90
2023-05-17T01:02:49.652Z,99.90
2023-05-17T01:05:21.675Z,99.90
2023-05-17T01:10:21.434Z,99.90
2023-05-17T01:13:03.488Z,99.90
2023-05-17T01:15:36.213Z,99.90
2023-05-17T01:18:19.285Z,99.90
2023-05-17T01:20:53.964Z,99.90
2023-05-17T01:23:43.168Z,99.90
2023-05-17T01:26:18.696Z,99.90
2023-05-17T01:28:51.035Z,99.90
2023-05-17T01:31:21.270Z,99.90
2023-05-17T01:33:49.816Z,99.90
2023-05-17T01:38:49.044Z,99.90
2023-05-17T01:41:29.307Z,99.90
2023-05-17T01:44:10.843Z,99.90
2023-05-17T01:46:43.465Z,99.90
2023-05-17T01:49:19.498Z,99.90
2023-05-17T01:51:59.949Z,99.90
2023-05-17T01:54:33.302Z,99.90
2023-05-17T01:57:08.232Z,99.90
2023-05-17T01:59:42.435Z,99.90
2023-05-17T02:04:42.457Z,99.90
2023-05-17T02:09:43.009Z,99.90
2023-05-17T02:12:12.364Z,99.90
2023-05-17T02:14:44.612Z,99.90
2023-05-17T02:17:13.379Z,99.90
2023-05-17T02:19:45.327Z,99.90
2023-05-17T02:24:44.437Z,99.90
2023-05-17T02:27:13.544Z,99.90
2023-05-17T02:29:43.119Z,99.90
2023-05-17T02:37:12.714Z,99.90
2023-05-17T02:42:11.874Z,99.90
2023-05-17T02:44:42.816Z,99.90
2023-05-17T02:47:12.361Z,99.90
2023-05-17T02:49:42.051Z,99.90
2023-05-17T02:52:12.888Z,99.90
2023-05-17T02:54:43.624Z,99.90
2023-05-17T02:59:44.982Z,99.90
2023-05-17T03:02:15.939Z,99.90
2023-05-17T03:04:45.703Z,99.90
2023-05-17T03:07:15.710Z,99.90
2023-05-17T03:09:46.435Z,1.00
2023-05-17T03:12:15.974Z,1.00
2023-05-17T03:14:47.552Z,1.00
2023-05-17T03:17:17.334Z,1.00
2023-05-17T03:19:48.286Z,1.00
2023-05-17T03:22:18.742Z,1.00
2023-05-17T03:24:48.734Z,1.00
2023-05-17T03:29:50.534Z,1.00
2023-05-17T03:32:21.329Z,1.00
2023-05-17T03:37:20.898Z,1.00
2023-05-17T03:42:18.830Z,1.00
2023-05-17T03:44:50.047Z,99.90
2023-05-17T03:47:24.923Z,99.90
2023-05-17T03:54:51.810Z,1.00
2023-05-17T03:59:53.771Z,1.00
2023-05-17T04:02:24.453Z,1.00
2023-05-17T04:04:54.615Z,1.00
2023-05-17T04:10:00.135Z,1.00
2023-05-17T04:15:01.121Z,1.00
2023-05-17T04:22:30.970Z,1.00
2023-05-17T04:27:31.038Z,1.00
2023-05-17T04:30:03.391Z,1.00
2023-05-17T04:32:34.285Z,1.00
2023-05-17T04:35:04.647Z,1.00
2023-05-17T04:37:33.066Z,1.00
2023-05-17T04:40:10.129Z,1.00
2023-05-17T04:42:40.078Z,1.00
2023-05-17T04:45:15.396Z,1.00
2023-05-17T04:50:14.917Z,1.00
2023-05-17T04:55:13.330Z,1.00
2023-05-17T04:57:45.774Z,1.00
2023-05-17T05:00:19.987Z,1.00
2023-05-17T05:02:55.659Z,1.00
2023-05-17T05:07:56.271Z,1.00
2023-05-17T05:10:24.805Z,1.00
2023-05-17T05:15:26.487Z,1.00
2023-05-17T05:20:28.509Z,1.00
2023-05-17T05:23:02.053Z,1.00
2023-05-17T05:28:01.581Z,1.00
2023-05-17T05:30:34.491Z,7.60
2023-05-17T05:33:04.192Z,10.70
2023-05-17T05:38:04.147Z,1.00
2023-05-17T05:45:34.347Z,1.00
2023-05-17T05:48:05.910Z,1.00
2023-05-17T05:50:36.634Z,1.00
2023-05-17T05:53:18.696Z,1.00
2023-05-17T05:58:24.159Z,1.00
2023-05-17T06:00:54.355Z,1.00
2023-05-17T06:05:54.991Z,1.00
2023-05-17T06:08:24.500Z,1.00
2023-05-17T06:10:54.860Z,1.00
2023-05-17T06:15:56.176Z,1.00
2023-05-17T06:20:55.814Z,1.00
2023-05-17T06:31:00.636Z,85.10
2023-05-17T06:38:32.090Z,1.00
2023-05-17T06:46:06.815Z,1.00
2023-05-17T06:56:02.735Z,1.00
2023-05-17T06:58:32.710Z,1.00
2023-05-17T07:06:05.816Z,1.00
2023-05-17T07:08:34.023Z,1.00
2023-05-17T07:13:34.695Z,1.00
2023-05-17T07:18:35.109Z,1.00
2023-05-17T07:21:06.217Z,1.00
2023-05-17T07:23:34.391Z,1.00
2023-05-17T07:28:34.181Z,1.00
2023-05-17T07:31:03.955Z,1.00
2023-05-17T07:36:03.966Z,1.00
2023-05-17T07:41:09.431Z,1.00
2023-05-17T07:43:38.990Z,1.00
2023-05-17T07:46:10.056Z,1.00
2023-05-17T07:48:38.343Z,1.00
2023-05-17T07:56:07.540Z,1.00
2023-05-17T07:58:38.402Z,1.00
2023-05-17T08:01:11.551Z,1.00
2023-05-17T08:06:16.891Z,1.00
2023-05-17T08:08:46.829Z,1.00
2023-05-17T08:11:16.911Z,1.00
2023-05-17T08:13:46.470Z,1.00
2023-05-17T08:16:20.493Z,1.00
2023-05-17T08:21:21.665Z,1.00
2023-05-17T08:23:51.705Z,1.00
2023-05-17T08:26:19.948Z,1.00
2023-05-17T08:31:21.176Z,1.00
2023-05-17T08:33:51.079Z,1.00
2023-05-17T08:36:22.058Z,1.00
2023-05-17T08:38:53.729Z,1.00
2023-05-17T08:41:22.740Z,1.00
2023-05-17T08:43:54.280Z,1.00
2023-05-17T08:46:26.655Z,1.00
2023-05-17T08:49:00.140Z,1.00
2023-05-17T08:51:29.826Z,1.00
2023-05-17T08:53:58.315Z,1.00
2023-05-17T08:56:31.240Z,1.00
2023-05-17T08:59:01.518Z,1.00
2023-05-17T09:01:33.509Z,1.00
2023-05-17T09:04:05.013Z,1.00
2023-05-17T09:06:35.358Z,1.00
2023-05-17T09:09:03.732Z,1.00
2023-05-17T09:11:34.152Z,1.00
2023-05-17T09:14:04.233Z,1.00
2023-05-17T09:16:38.742Z,1.00
2023-05-17T09:19:09.050Z,1.00
2023-05-17T09:21:42.385Z,1.00
2023-05-17T09:24:14.450Z,1.00
2023-05-17T09:26:48.520Z,1.00
2023-05-17T09:29:20.216Z,1.00
2023-05-17T09:31:56.853Z,1.00
2023-05-17T09:34:28.184Z,1.00
2023-05-17T09:36:58.064Z,1.00
2023-05-17T09:39:27.198Z,1.00
2023-05-17T09:41:58.828Z,1.00
2023-05-17T09:44:30.306Z,1.00
2023-05-17T09:47:04.222Z,1.00
2023-05-17T09:49:38.921Z,1.00
2023-05-17T09:52:10.906Z,1.00
2023-05-17T09:54:42.944Z,1.00
2023-05-17T09:59:43.299Z,1.00
2023-05-17T10:02:23.598Z,1.00
2023-05-17T10:04:54.022Z,1.00
2023-05-17T10:07:27.487Z,1.00
2023-05-17T10:09:57.480Z,1.00
2023-05-17T10:12:30.640Z,1.00
2023-05-17T10:17:35.147Z,1.00
2023-05-17T10:20:08.737Z,1.00
2023-05-17T10:22:40.061Z,1.00
2023-05-17T10:25:10.944Z,1.00
2023-05-17T10:27:41.866Z,1.00
2023-05-17T10:30:13.913Z,1.00
2023-05-17T10:32:45.926Z,1.00
2023-05-17T10:35:16.685Z,1.00
2023-05-17T10:37:46.433Z,1.00
2023-05-17T10:42:53.852Z,1.00
2023-05-17T10:45:28.160Z,1.00
2023-05-17T10:48:02.037Z,1.00
2023-05-17T10:50:30.799Z,1.00
2023-05-17T10:53:01.565Z,1.00
2023-05-17T10:55:40.774Z,1.00
2023-05-17T10:58:20.874Z,1.00
2023-05-17T11:00:55.185Z,1.00
2023-05-17T11:03:31.268Z,1.00
2023-05-17T11:06:25.239Z,1.00
2023-05-17T11:09:16.126Z,1.00
2023-05-17T11:12:06.700Z,1.00
2023-05-17T11:14:55.987Z,1.00
2023-05-17T11:17:30.165Z,1.00
2023-05-17T11:20:13.489Z,1.00
2023-05-17T11:22:44.791Z,1.00
2023-05-17T11:25:15.623Z,1.00
2023-05-17T11:27:49.152Z,1.00
2023-05-17T11:30:20.075Z,1.00
2023-05-17T11:32:51.718Z,1.00
2023-05-17T11:35:27.307Z,1.00
2023-05-17T11:38:13.853Z,1.00
2023-05-17T11:40:43.582Z,1.00
2023-05-17T11:43:19.081Z,1.00
2023-05-17T11:45:53.688Z,1.00
2023-05-17T11:48:27.232Z,1.00
2023-05-17T11:51:02.390Z,1.00
2023-05-17T11:53:32.710Z,1.00
2023-05-17T11:56:06.731Z,1.00
2023-05-17T11:58:35.782Z,1.00
2023-05-17T12:01:05.734Z,1.00
2023-05-17T12:03:35.034Z,1.00
2023-05-17T12:06:09.557Z,1.00
2023-05-17T12:08:40.405Z,1.00
2023-05-17T12:11:15.990Z,1.00
2023-05-17T12:13:48.984Z,1.00
2023-05-17T12:16:23.702Z,1.00
2023-05-17T12:18:54.272Z,1.00
2023-05-17T12:21:25.544Z,1.00
2023-05-17T12:23:55.537Z,1.00
2023-05-17T12:26:26.292Z,1.00
2023-05-17T12:28:58.134Z,1.00
2023-05-17T12:31:30.778Z,1.00
2023-05-17T12:34:02.536Z,1.00
2023-05-17T12:36:34.984Z,1.00
2023-05-17T12:39:11.403Z,1.00
2023-05-17T12:41:40.485Z,1.00
2023-05-17T12:46:43.627Z,1.00
2023-05-17T12:49:15.112Z,1.00
2023-05-17T12:51:48.887Z,1.00
2023-05-17T12:54:28.302Z,1.00
2023-05-17T12:59:29.293Z,1.00
2023-05-17T13:02:01.894Z,1.00
2023-05-17T13:04:33.791Z,1.00
2023-05-17T13:07:07.831Z,1.00
2023-05-17T13:09:50.089Z,1.00
2023-05-17T13:12:23.114Z,1.00
2023-05-17T13:14:56.188Z,1.00
2023-05-17T13:17:28.605Z,1.00
2023-05-17T13:19:59.381Z,1.00
2023-05-17T13:22:32.147Z,1.00
2023-05-17T13:27:31.039Z,1.00
2023-05-17T13:30:01.876Z,1.00
2023-05-17T13:32:32.617Z,1.00
2023-05-17T13:35:03.278Z,1.00
2023-05-17T13:37:34.780Z,1.00
2023-05-17T13:40:06.693Z,1.00
2023-05-17T13:42:37.907Z,1.00
2023-05-17T13:45:11.663Z,1.00
2023-05-17T13:47:41.403Z,1.00
2023-05-17T13:50:16.013Z,1.00
2023-05-17T13:52:47.085Z,1.00
2023-05-17T13:55:17.171Z,1.00
2023-05-17T13:57:46.749Z,1.00
2023-05-17T14:00:16.783Z,1.00
2023-05-17T14:02:46.500Z,1.00
2023-05-17T14:05:16.034Z,1.00
2023-05-17T14:07:48.245Z,1.00
2023-05-17T14:10:17.661Z,1.00
2023-05-17T14:12:47.972Z,1.00
2023-05-17T14:15:16.501Z,1.00
2023-05-17T14:17:47.206Z,1.00
2023-05-17T14:20:15.764Z,1.00
2023-05-17T14:22:47.032Z,1.00
2023-05-17T14:27:45.436Z,1.00
2023-05-17T14:30:16.749Z,1.00
2023-05-17T14:32:45.310Z,1.00
2023-05-17T14:35:14.186Z,1.00
2023-05-17T14:37:42.754Z,1.00
2023-05-17T14:40:13.222Z,1.00
2023-05-17T14:42:42.179Z,1.00
2023-05-17T14:45:12.064Z,1.00
2023-05-17T14:47:41.940Z,1.00
2023-05-17T14:50:13.123Z,1.00
2023-05-17T14:55:14.999Z,1.00
2023-05-17T15:00:16.255Z,1.00
2023-05-17T15:02:45.925Z,1.00
2023-05-17T15:05:16.999Z,1.00
2023-05-17T15:10:18.854Z,1.00
2023-05-17T15:12:48.604Z,1.00
2023-05-17T15:15:17.952Z,1.00
2023-05-17T15:17:49.174Z,1.00
2023-05-17T15:20:20.223Z,1.00
2023-05-17T15:22:50.420Z,1.00
2023-05-17T15:25:22.489Z,1.00
2023-05-17T15:27:50.956Z,1.00
2023-05-17T15:30:23.913Z,1.00
2023-05-17T15:35:22.103Z,1.00
2023-05-17T15:37:54.713Z,1.00
2023-05-17T15:40:25.142Z,1.00
2023-05-17T15:42:56.451Z,1.00
2023-05-17T15:50:26.803Z,1.00
2023-05-17T15:55:27.889Z,1.00
2023-05-17T16:00:28.067Z,1.00
2023-05-17T16:02:58.785Z,1.00
2023-05-17T16:10:38.189Z,1.00
2023-05-17T16:15:37.365Z,1.00
2023-05-17T16:18:06.417Z,1.00
2023-05-17T16:23:09.267Z,1.00
2023-05-17T16:25:39.014Z,1.00
2023-05-17T16:30:38.659Z,1.00
2023-05-17T16:35:40.126Z,1.00
2023-05-17T16:38:10.171Z,1.00
2023-05-17T16:40:41.849Z,1.00
2023-05-17T16:45:46.422Z,1.00
2023-05-17T16:48:16.590Z,1.00
2023-05-17T16:50:46.242Z,1.00
2023-05-17T16:53:15.869Z,1.00
2023-05-17T16:55:46.999Z,1.00
2023-05-17T17:03:16.810Z,1.00
2023-05-17T17:05:47.693Z,1.00
2023-05-17T17:08:16.087Z,1.00
2023-05-17T17:10:50.137Z,1.00
2023-05-17T17:13:18.874Z,1.00
2023-05-17T17:15:52.309Z,1.00
2023-05-17T17:18:21.877Z,1.00
2023-05-17T17:20:51.592Z,1.00
2023-05-17T17:23:20.078Z,1.00
2023-05-17T17:25:51.040Z,1.00
2023-05-17T17:33:19.973Z,1.00
2023-05-17T17:40:49.596Z,1.00
2023-05-17T17:43:19.220Z,1.00
2023-05-17T17:45:47.621Z,1.00
2023-05-17T17:50:45.727Z,1.00
2023-05-17T17:53:14.011Z,1.00
2023-05-17T17:58:13.203Z,1.00
2023-05-17T18:00:42.647Z,1.00
2023-05-17T18:03:12.105Z,1.00
2023-05-17T18:08:10.784Z,1.00
2023-05-17T18:10:40.492Z,1.00
2023-05-17T18:13:10.557Z,1.00
2023-05-17T18:15:40.321Z,1.00
2023-05-17T18:18:11.248Z,1.00
2023-05-17T18:20:41.354Z,1.00
2023-05-17T18:23:12.000Z,1.00
2023-05-17T18:28:11.516Z,1.00
2023-05-17T18:30:42.344Z,1.00
2023-05-17T18:35:40.754Z,1.00
2023-05-17T18:40:38.136Z,1.00
2023-05-17T18:48:07.656Z,1.00
2023-05-17T18:50:38.601Z,1.00
2023-05-17T18:53:08.225Z,1.00
2023-05-17T19:05:36.918Z,1.00
2023-05-17T19:10:39.920Z,1.00
2023-05-17T19:18:09.931Z,1.00
2023-05-17T19:28:08.819Z,1.00
2023-05-17T19:30:37.426Z,1.00
2023-05-17T19:35:40.239Z,1.00
2023-05-17T19:38:08.962Z,1.00
2023-05-17T19:40:39.513Z,1.00
2023-05-17T19:43:08.056Z,1.00
2023-05-17T19:45:37.507Z,1.00
2023-05-17T19:50:37.813Z,1.00
2023-05-17T19:53:07.352Z,1.00
2023-05-17T19:55:37.449Z,1.00
2023-05-17T20:00:35.322Z,1.00
2023-05-17T20:05:37.929Z,1.00
2023-05-17T20:13:10.597Z,1.00
2023-05-17T20:15:40.301Z,1.00
2023-05-17T20:20:41.385Z,1.00
2023-05-17T20:23:11.057Z,1.00
2023-05-17T20:25:41.057Z,1.00
2023-05-17T20:30:43.738Z,1.00
2023-05-17T20:33:12.333Z,1.00
2023-05-17T20:35:43.227Z,1.00
2023-05-17T20:40:43.151Z,1.00
2023-05-17T20:43:11.374Z,1.00
2023-05-17T20:45:41.378Z,1.00
2023-05-17T20:48:10.752Z,1.00
2023-05-17T20:50:40.303Z,1.00
2023-05-17T20:53:10.676Z,1.00
2023-05-17T20:55:41.570Z,1.00
2023-05-17T20:58:09.871Z,1.00
2023-05-17T21:00:39.528Z,1.00
2023-05-17T21:03:09.321Z,1.00
2023-05-17T21:05:38.553Z,1.00
2023-05-17T21:08:09.022Z,1.00
2023-05-17T21:15:42.359Z,1.00
2023-05-17T21:18:13.681Z,1.00
2023-05-17T21:23:15.609Z,1.00
2023-05-17T21:30:42.649Z,1.00
2023-05-17T21:33:12.084Z,1.00
2023-05-17T21:35:41.509Z,1.00
2023-05-17T21:38:11.547Z,1.00
2023-05-17T21:40:41.508Z,1.00
2023-05-17T21:43:11.320Z,1.00
2023-05-17T21:45:41.336Z,1.00
2023-05-17T21:48:09.977Z,1.00
2023-05-17T21:50:39.442Z,1.00
2023-05-17T21:53:09.100Z,1.00
2023-05-17T21:55:56.935Z,1.00
2023-05-17T21:58:33.084Z,1.00
2023-05-17T22:01:01.768Z,1.00
2023-05-17T22:03:30.197Z,1.00
2023-05-17T22:10:58.575Z,1.00
2023-05-17T22:15:59.644Z,1.00
2023-05-17T22:18:32.085Z,1.00
2023-05-17T22:23:31.498Z,1.00
2023-05-17T22:26:03.639Z,1.00
2023-05-17T22:28:33.068Z,1.00
2023-05-17T22:31:07.594Z,1.00
2023-05-17T22:33:38.491Z,1.00
2023-05-17T22:36:13.912Z,1.00
2023-05-17T22:38:42.631Z,1.00
2023-05-17T22:41:13.290Z,1.00
2023-05-17T22:43:42.934Z,1.00
2023-05-17T22:51:12.883Z,1.00
2023-05-17T22:53:41.346Z,1.00
2023-05-17T22:56:12.540Z,1.00
2023-05-17T23:03:42.596Z,1.00
2023-05-17T23:08:41.989Z,1.00
2023-05-17T23:11:11.624Z,1.00
2023-05-17T23:13:41.949Z,1.00
2023-05-17T23:18:40.578Z,1.00
2023-05-17T23:23:42.788Z,1.00
2023-05-17T23:26:15.857Z,1.00
2023-05-17T23:28:45.285Z,1.00
2023-05-17T23:31:13.793Z,1.00
2023-05-17T23:33:42.633Z,1.00
2023-05-17T23:36:13.672Z,1.00
2023-05-17T23:38:42.157Z,1.00
2023-05-17T23:43:49.935Z,1.00
2023-05-17T23:51:22.551Z,1.00
2023-05-17T23:53:51.299Z,1.00
2023-05-17T23:56:21.541Z,1.00
2023-05-17T23:58:53.590Z,1.00
